createdAt,value
2018-07-26T00:02:03.272Z,12.33
2018-07-26T00:04:32.300Z,14.83
2018-07-26T00:07:01.365Z,16.87
2018-07-26T00:09:30.336Z,18.70
2018-07-26T00:11:59.335Z,12.20
2018-07-26T00:14:28.304Z,14.33
2018-07-26T00:16:57.344Z,16.97
2018-07-26T00:19:26.300Z,19.80
2018-07-26T00:21:55.254Z,20.33
2018-07-26T00:24:24.236Z,26.80
2018-07-26T00:26:53.224Z,19.80
2018-07-26T00:29:22.228Z,22.20
2018-07-26T00:31:51.193Z,24.23
2018-07-26T00:34:20.140Z,20.50
2018-07-26T00:36:49.112Z,21.17
2018-07-26T00:39:18.084Z,16.83
2018-07-26T00:41:47.076Z,19.07
2018-07-26T00:44:16.017Z,27.40
2018-07-26T00:46:45.008Z,29.63
2018-07-26T00:49:13.952Z,20.83
2018-07-26T00:51:42.920Z,18.80
2018-07-26T00:54:11.922Z,21.40
2018-07-26T00:56:40.951Z,16.13
2018-07-26T00:59:09.944Z,20.17
2018-07-26T01:01:38.959Z,24.70
2018-07-26T01:04:08.024Z,23.73
2018-07-26T01:06:37.025Z,14.60
2018-07-26T01:09:08.993Z,21.53
2018-07-26T01:11:38.263Z,12.27
2018-07-26T01:14:07.228Z,21.40
2018-07-26T01:16:36.205Z,23.40
2018-07-26T01:19:05.430Z,18.53
2018-07-26T01:21:34.448Z,17.40
2018-07-26T01:24:03.636Z,15.67
2018-07-26T01:26:32.712Z,13.10
2018-07-26T01:29:01.793Z,13.13
2018-07-26T01:31:30.839Z,16.73
2018-07-26T01:33:59.866Z,14.70
2018-07-26T01:36:28.824Z,17.20
2018-07-26T01:38:57.927Z,15.07
2018-07-26T01:41:26.945Z,13.00
2018-07-26T01:44:06.687Z,12.17
2018-07-26T01:46:35.615Z,15.87
2018-07-26T01:49:04.683Z,19.03
2018-07-26T01:51:33.648Z,19.07
2018-07-26T01:54:02.721Z,14.43
2018-07-26T01:56:31.746Z,14.80
2018-07-26T01:59:00.692Z,17.10
2018-07-26T02:01:29.660Z,22.80
2018-07-26T02:03:58.672Z,14.77
2018-07-26T02:06:27.702Z,18.20
2018-07-26T02:08:56.692Z,18.77
2018-07-26T02:11:25.794Z,21.93
2018-07-26T02:13:54.824Z,18.30
2018-07-26T02:16:23.846Z,23.00
2018-07-26T02:18:52.932Z,13.63
2018-07-26T02:21:21.880Z,16.47
2018-07-26T02:23:50.869Z,21.03
2018-07-26T02:26:19.829Z,19.20
2018-07-26T02:28:48.847Z,21.27
2018-07-26T02:31:17.800Z,18.33
2018-07-26T02:33:46.827Z,32.73
2018-07-26T02:36:15.788Z,22.63
2018-07-26T02:38:44.796Z,19.20
2018-07-26T02:41:13.829Z,21.50
2018-07-26T02:43:42.860Z,25.73
2018-07-26T02:46:11.901Z,26.53
2018-07-26T02:48:40.844Z,32.07
2018-07-26T02:51:09.902Z,35.90
2018-07-26T02:53:38.910Z,45.87
2018-07-26T02:56:07.916Z,31.30
2018-07-26T02:58:36.892Z,30.63
2018-07-26T03:01:05.908Z,35.63
2018-07-26T03:03:35.047Z,36.53
2018-07-26T03:06:04.013Z,29.00
2018-07-26T03:08:33.045Z,38.37
2018-07-26T03:11:02.098Z,24.70
2018-07-26T03:13:31.072Z,34.20
2018-07-26T03:16:00.154Z,38.17
2018-07-26T03:18:29.108Z,27.40
2018-07-26T03:20:58.369Z,27.87
2018-07-26T03:23:27.325Z,22.87
2018-07-26T03:25:56.296Z,23.03
2018-07-26T03:28:25.282Z,20.97
2018-07-26T03:30:54.290Z,18.37
2018-07-26T03:33:23.334Z,16.90
2018-07-26T03:35:52.345Z,14.57
2018-07-26T03:38:21.432Z,13.13
2018-07-26T03:40:50.408Z,17.53
2018-07-26T03:43:19.429Z,15.03
2018-07-26T03:45:48.408Z,17.00
2018-07-26T03:48:17.388Z,18.83
2018-07-26T03:50:46.454Z,19.10
2018-07-26T03:53:15.487Z,11.90
2018-07-26T03:55:44.573Z,23.60
2018-07-26T03:58:13.544Z,18.17
2018-07-26T04:00:42.585Z,17.20
2018-07-26T04:03:11.647Z,23.53
2018-07-26T04:05:40.648Z,18.70
2018-07-26T04:08:24.141Z,15.23
2018-07-26T04:10:53.177Z,21.47
2018-07-26T04:13:22.333Z,21.23
2018-07-26T04:15:51.422Z,15.70
2018-07-26T04:18:20.462Z,16.30
2018-07-26T04:20:49.572Z,17.17
2018-07-26T04:23:18.560Z,19.10
2018-07-26T04:25:47.572Z,14.60
2018-07-26T04:28:16.626Z,18.13
2018-07-26T04:30:45.666Z,15.20
2018-07-26T04:33:15.603Z,19.77
2018-07-26T04:35:44.680Z,13.20
2018-07-26T04:38:13.705Z,14.40
2018-07-26T04:40:42.696Z,13.50
2018-07-26T04:43:11.913Z,10.90
2018-07-26T04:45:41.046Z,14.40
2018-07-26T04:48:10.262Z,155.90
2018-07-26T04:50:39.840Z,101.17
2018-07-26T04:53:08.879Z,32.33
2018-07-26T04:55:37.922Z,23.37
2018-07-26T04:58:07.222Z,24.27
2018-07-26T05:00:36.208Z,16.90
2018-07-26T05:03:05.304Z,19.00
2018-07-26T05:05:34.362Z,11.90
2018-07-26T05:08:03.436Z,13.60
2018-07-26T05:10:32.561Z,20.70
2018-07-26T05:13:01.678Z,15.90
2018-07-26T05:15:30.721Z,14.23
2018-07-26T05:17:59.817Z,12.53
2018-07-26T05:20:28.824Z,17.10
2018-07-26T05:22:57.848Z,13.00
2018-07-26T05:25:26.991Z,25.60
2018-07-26T05:27:56.069Z,12.47
2018-07-26T05:30:25.129Z,14.70
2018-07-26T05:32:54.185Z,16.00
2018-07-26T05:35:23.177Z,20.53
2018-07-26T05:37:52.216Z,15.17
2018-07-26T05:40:21.383Z,16.53
2018-07-26T05:42:50.368Z,10.27
2018-07-26T05:45:19.398Z,17.40
2018-07-26T05:47:48.479Z,10.13
2018-07-26T05:50:17.552Z,10.40
2018-07-26T05:52:46.548Z,16.33
2018-07-26T05:55:15.685Z,14.40
2018-07-26T05:57:44.744Z,19.63
2018-07-26T06:00:14.800Z,33.33
2018-07-26T06:02:44.514Z,12.77
2018-07-26T06:05:13.523Z,18.77
2018-07-26T06:07:42.601Z,11.67
2018-07-26T06:10:11.644Z,11.53
2018-07-26T06:12:40.713Z,18.97
2018-07-26T06:15:11.921Z,23.27
2018-07-26T06:17:41.498Z,11.70
2018-07-26T06:20:12.009Z,13.07
2018-07-26T06:22:41.461Z,22.93
2018-07-26T06:25:10.771Z,14.20
2018-07-26T06:27:39.908Z,5.97
2018-07-26T06:30:11.881Z,11.43
2018-07-26T06:32:41.192Z,10.60
2018-07-26T06:35:10.900Z,11.70
2018-07-26T06:37:40.276Z,31.43
2018-07-26T06:40:09.364Z,16.50
2018-07-26T06:42:38.352Z,23.53
2018-07-26T06:45:08.520Z,25.50
2018-07-26T06:47:37.502Z,26.93
2018-07-26T06:50:08.638Z,25.50
2018-07-26T06:52:37.716Z,24.10
2018-07-26T06:55:06.980Z,15.83
2018-07-26T06:57:36.015Z,17.97
2018-07-26T07:00:06.751Z,13.00
2018-07-26T07:02:35.745Z,14.83
2018-07-26T07:05:04.747Z,12.23
2018-07-26T07:07:33.757Z,15.13
2018-07-26T07:10:02.855Z,14.67
2018-07-26T07:12:31.924Z,16.90
2018-07-26T07:15:00.884Z,10.77
2018-07-26T07:17:29.859Z,10.57
2018-07-26T07:19:58.821Z,9.00
2018-07-26T07:22:27.912Z,14.23
2018-07-26T07:24:56.937Z,12.70
2018-07-26T07:27:26.026Z,10.13
2018-07-26T07:29:55.106Z,18.00
2018-07-26T07:32:24.112Z,24.20
2018-07-26T07:34:53.128Z,14.33
2018-07-26T07:37:22.104Z,16.63
2018-07-26T07:39:51.080Z,11.97
2018-07-26T07:42:20.038Z,11.70
2018-07-26T07:44:49.107Z,7.60
2018-07-26T07:47:18.145Z,13.23
2018-07-26T07:49:47.084Z,8.20
2018-07-26T07:52:16.172Z,9.40
2018-07-26T07:54:45.197Z,7.90
2018-07-26T07:57:14.348Z,6.60
2018-07-26T07:59:43.327Z,8.63
2018-07-26T08:02:12.422Z,8.87
2018-07-26T08:04:41.381Z,7.63
2018-07-26T08:07:10.406Z,6.07
2018-07-26T08:09:39.442Z,7.20
2018-07-26T08:12:08.480Z,7.30
2018-07-26T08:14:37.638Z,15.13
2018-07-26T08:17:06.704Z,13.50
2018-07-26T08:19:35.717Z,9.07
2018-07-26T08:22:04.741Z,6.50
2018-07-26T08:24:33.753Z,10.73
2018-07-26T08:27:02.730Z,8.53
2018-07-26T08:29:31.758Z,6.87
2018-07-26T08:32:00.736Z,6.27
2018-07-26T08:34:29.760Z,10.50
2018-07-26T08:36:58.816Z,4.30
2018-07-26T08:39:27.792Z,6.80
2018-07-26T08:41:56.799Z,7.77
2018-07-26T08:44:25.844Z,7.27
2018-07-26T08:46:54.828Z,4.90
2018-07-26T08:49:23.827Z,5.17
2018-07-26T08:51:52.920Z,4.40
2018-07-26T08:54:22.060Z,6.37
2018-07-26T08:56:51.080Z,5.20
2018-07-26T08:59:20.045Z,11.13
2018-07-26T09:01:49.180Z,5.10
2018-07-26T09:04:18.152Z,9.67
2018-07-26T09:06:47.185Z,6.07
2018-07-26T09:09:16.277Z,10.07
2018-07-26T09:11:45.340Z,4.50
2018-07-26T09:14:14.475Z,6.70
2018-07-26T09:16:43.428Z,8.57
2018-07-26T09:19:12.400Z,6.80
2018-07-26T09:21:41.465Z,9.73
2018-07-26T09:24:10.462Z,6.87
2018-07-26T09:26:39.416Z,6.90
2018-07-26T09:29:08.455Z,5.87
2018-07-26T09:31:37.412Z,8.87
2018-07-26T09:34:06.450Z,6.73
2018-07-26T09:36:35.478Z,5.03
2018-07-26T09:39:06.763Z,5.57
2018-07-26T09:41:35.825Z,11.87
2018-07-26T09:44:04.778Z,6.87
2018-07-26T09:46:33.865Z,7.07
2018-07-26T09:49:02.868Z,4.83
2018-07-26T09:51:31.830Z,8.67
2018-07-26T09:54:00.801Z,6.33
2018-07-26T09:56:29.861Z,15.63
2018-07-26T09:58:58.912Z,4.03
2018-07-26T10:01:33.680Z,7.10
2018-07-26T10:04:02.773Z,7.00
2018-07-26T10:06:31.781Z,6.47
2018-07-26T10:09:00.801Z,4.00
2018-07-26T10:11:29.914Z,13.60
2018-07-26T10:13:58.950Z,7.60
2018-07-26T10:16:28.038Z,3.70
2018-07-26T10:18:57.010Z,5.20
2018-07-26T10:21:26.064Z,4.23
2018-07-26T10:23:55.013Z,4.00
2018-07-26T10:26:24.385Z,5.00
2018-07-26T10:28:53.480Z,9.30
2018-07-26T10:31:22.567Z,7.90
2018-07-26T10:33:51.544Z,8.53
2018-07-26T10:36:20.632Z,3.70
2018-07-26T10:38:49.722Z,6.63
2018-07-26T10:41:18.925Z,5.50
2018-07-26T10:43:47.872Z,3.53
2018-07-26T10:46:16.906Z,5.00
2018-07-26T10:48:45.881Z,4.07
2018-07-26T10:51:14.931Z,13.97
2018-07-26T10:53:43.948Z,11.05
2018-07-26T10:56:12.992Z,4.30
2018-07-26T10:58:42.396Z,3.67
2018-07-26T11:01:11.350Z,4.25
2018-07-26T11:03:40.361Z,4.12
2018-07-26T11:06:09.353Z,5.78
2018-07-26T11:08:38.384Z,5.65
2018-07-26T11:11:07.757Z,9.88
2018-07-26T11:13:36.836Z,5.03
2018-07-26T11:16:05.808Z,5.28
2018-07-26T11:18:34.805Z,5.20
2018-07-26T11:21:03.909Z,7.40
2018-07-26T11:23:33.005Z,4.03
2018-07-26T11:26:02.122Z,3.75
2018-07-26T11:28:31.158Z,4.00
2018-07-26T11:31:00.247Z,10.88
2018-07-26T11:33:29.228Z,4.58
2018-07-26T11:35:58.328Z,6.72
2018-07-26T11:38:27.373Z,6.95
2018-07-26T11:40:56.420Z,3.80
2018-07-26T11:43:25.449Z,6.62
2018-07-26T11:45:54.465Z,8.45
2018-07-26T11:48:23.500Z,9.45
2018-07-26T11:50:52.563Z,3.10
2018-07-26T11:53:21.569Z,5.10
2018-07-26T11:55:50.669Z,5.25
2018-07-26T11:58:19.648Z,3.85
2018-07-26T12:00:48.611Z,3.95
2018-07-26T12:03:17.628Z,4.87
2018-07-26T12:05:46.736Z,3.20
2018-07-26T12:08:15.720Z,3.60
2018-07-26T12:10:44.712Z,3.50
2018-07-26T12:13:13.712Z,7.03
2018-07-26T12:15:42.714Z,15.88
2018-07-26T12:18:11.933Z,6.85
2018-07-26T12:20:41.024Z,7.30
2018-07-26T12:23:10.101Z,3.62
2018-07-26T12:25:39.036Z,3.67
2018-07-26T12:28:08.330Z,5.28
2018-07-26T12:30:37.312Z,5.65
2018-07-26T12:33:06.356Z,4.00
2018-07-26T12:35:35.390Z,6.55
2018-07-26T12:38:04.401Z,9.25
2018-07-26T12:40:33.513Z,2.67
2018-07-26T12:43:02.881Z,3.55
2018-07-26T12:45:31.832Z,3.65
2018-07-26T12:48:00.929Z,3.62
2018-07-26T12:50:29.968Z,5.33
2018-07-26T12:52:58.944Z,3.62
2018-07-26T12:55:28.220Z,5.00
2018-07-26T12:57:57.304Z,11.73
2018-07-26T13:00:26.258Z,5.47
2018-07-26T13:02:55.265Z,4.47
2018-07-26T13:05:24.232Z,5.85
2018-07-26T13:07:53.208Z,4.00
2018-07-26T13:10:22.172Z,4.25
2018-07-26T13:12:51.136Z,4.20
2018-07-26T13:15:20.198Z,5.37
2018-07-26T13:17:49.550Z,5.53
2018-07-26T13:20:18.569Z,4.17
2018-07-26T13:22:47.608Z,3.72
2018-07-26T13:25:16.640Z,4.37
2018-07-26T13:27:45.613Z,3.90
2018-07-26T13:30:14.579Z,10.47
2018-07-26T13:32:43.560Z,5.27
2018-07-26T13:35:12.836Z,5.43
2018-07-26T13:37:41.876Z,4.33
2018-07-26T13:40:10.901Z,4.57
2018-07-26T13:42:39.860Z,11.10
2018-07-26T13:45:09.580Z,7.60
2018-07-26T13:47:38.697Z,4.10
2018-07-26T13:50:07.913Z,4.10
2018-07-26T13:52:36.989Z,5.65
2018-07-26T13:55:06.107Z,8.08
2018-07-26T13:57:35.087Z,11.73
2018-07-26T14:00:04.156Z,6.43
2018-07-26T14:02:33.186Z,6.27
2018-07-26T14:05:02.266Z,7.37
2018-07-26T14:07:31.377Z,6.33
2018-07-26T14:10:00.361Z,6.10
2018-07-26T14:12:29.437Z,6.37
2018-07-26T14:14:58.409Z,5.27
2018-07-26T14:17:27.456Z,9.63
2018-07-26T14:19:56.468Z,10.77
2018-07-26T14:22:25.434Z,6.10
2018-07-26T14:24:58.468Z,10.87
2018-07-26T14:27:27.628Z,8.70
2018-07-26T14:29:56.857Z,6.00
2018-07-26T14:32:25.815Z,5.17
2018-07-26T14:34:54.924Z,6.33
2018-07-26T14:37:23.977Z,10.60
2018-07-26T14:39:52.920Z,7.57
2018-07-26T14:42:21.913Z,7.20
2018-07-26T14:44:50.995Z,5.23
2018-07-26T14:47:19.968Z,8.30
2018-07-26T14:49:48.913Z,9.63
2018-07-26T14:52:17.993Z,8.93
2018-07-26T14:54:47.001Z,7.23
2018-07-26T14:57:16.073Z,6.73
2018-07-26T14:59:45.052Z,6.93
2018-07-26T15:02:14.173Z,7.20
2018-07-26T15:04:43.146Z,9.10
2018-07-26T15:07:12.115Z,6.10
2018-07-26T15:09:41.161Z,10.80
2018-07-26T15:12:10.376Z,7.37
2018-07-26T15:14:39.337Z,8.80
2018-07-26T15:17:08.316Z,6.10
2018-07-26T15:19:37.415Z,8.70
2018-07-26T15:22:06.461Z,6.83
2018-07-26T15:24:36.241Z,8.67
2018-07-26T15:27:06.097Z,9.23
2018-07-26T15:29:35.085Z,10.63
2018-07-26T15:32:04.057Z,14.50
2018-07-26T15:34:33.040Z,7.07
2018-07-26T15:37:03.507Z,13.93
2018-07-26T15:39:32.525Z,9.70
2018-07-26T15:42:01.593Z,8.20
2018-07-26T15:44:30.765Z,6.90
2018-07-26T15:46:59.782Z,18.33
2018-07-26T15:49:28.856Z,12.50
2018-07-26T15:51:57.945Z,9.00
2018-07-26T15:54:27.028Z,10.03
2018-07-26T15:56:56.020Z,13.77
2018-07-26T15:59:24.991Z,13.43
2018-07-26T16:01:54.008Z,12.83
2018-07-26T16:04:23.127Z,14.23
2018-07-26T16:06:52.292Z,22.57
2018-07-26T16:09:21.277Z,11.50
2018-07-26T16:11:50.341Z,11.43
2018-07-26T16:14:19.352Z,17.40
2018-07-26T16:16:48.360Z,15.20
2018-07-26T16:19:17.485Z,16.57
2018-07-26T16:21:46.512Z,11.67
2018-07-26T16:24:15.673Z,14.50
2018-07-26T16:26:44.693Z,16.80
2018-07-26T16:29:13.725Z,12.40
2018-07-26T16:31:42.708Z,19.87
2018-07-26T16:34:11.845Z,27.90
2018-07-26T16:36:40.876Z,16.63
2018-07-26T16:39:11.737Z,29.23
2018-07-26T16:41:40.860Z,10.40
2018-07-26T16:44:09.840Z,17.00
2018-07-26T16:46:38.835Z,12.40
2018-07-26T16:49:08.446Z,11.47
2018-07-26T16:51:37.451Z,17.50
2018-07-26T16:54:06.529Z,10.97
2018-07-26T16:56:35.556Z,18.67
2018-07-26T16:59:04.715Z,17.97
2018-07-26T17:01:33.747Z,26.10
2018-07-26T17:04:02.755Z,18.33
2018-07-26T17:06:31.835Z,12.67
2018-07-26T17:09:00.791Z,17.97
2018-07-26T17:11:29.843Z,15.13
2018-07-26T17:13:58.870Z,13.27
2018-07-26T17:16:27.873Z,14.90
2018-07-26T17:18:56.979Z,16.07
2018-07-26T17:21:25.979Z,13.20
2018-07-26T17:23:58.458Z,21.87
2018-07-26T17:26:27.665Z,18.50
2018-07-26T17:28:56.716Z,15.93
2018-07-26T17:31:25.693Z,14.93
2018-07-26T17:33:54.885Z,10.33
2018-07-26T17:36:23.892Z,14.97
2018-07-26T17:38:52.857Z,15.27
2018-07-26T17:41:21.803Z,11.50
2018-07-26T17:43:50.937Z,11.93
2018-07-26T17:46:19.905Z,16.90
2018-07-26T17:48:48.989Z,11.37
2018-07-26T17:51:17.999Z,25.23
2018-07-26T17:53:46.996Z,12.43
2018-07-26T17:56:16.078Z,12.37
2018-07-26T17:58:45.085Z,18.40
2018-07-26T18:01:14.720Z,10.77
2018-07-26T18:03:43.875Z,11.13
2018-07-26T18:06:12.925Z,8.93
2018-07-26T18:08:41.884Z,8.53
2018-07-26T18:11:10.864Z,13.93
2018-07-26T18:13:39.879Z,15.90
2018-07-26T18:16:08.877Z,17.83
2018-07-26T18:18:42.775Z,11.57
2018-07-26T18:21:11.793Z,20.40
2018-07-26T18:23:40.854Z,18.23
2018-07-26T18:26:09.925Z,11.77
2018-07-26T18:28:38.923Z,14.30
2018-07-26T18:31:08.010Z,12.40
2018-07-26T18:33:36.977Z,13.90
2018-07-26T18:36:06.148Z,10.00
2018-07-26T18:38:35.142Z,15.73
2018-07-26T18:41:04.120Z,14.10
2018-07-26T18:43:33.331Z,7.60
2018-07-26T18:46:02.347Z,8.23
2018-07-26T18:48:31.522Z,6.90
2018-07-26T18:51:00.650Z,7.50
2018-07-26T18:53:29.724Z,7.70
2018-07-26T18:55:58.658Z,11.67
2018-07-26T18:58:27.706Z,10.70
2018-07-26T19:00:56.702Z,12.90
2018-07-26T19:03:25.793Z,10.97
2018-07-26T19:05:54.775Z,9.50
2018-07-26T19:08:23.789Z,8.57
2018-07-26T19:10:52.866Z,13.37
2018-07-26T19:13:21.912Z,9.60
2018-07-26T19:15:50.932Z,9.27
2018-07-26T19:18:20.028Z,9.20
2018-07-26T19:20:49.105Z,8.90
2018-07-26T19:23:18.150Z,9.80
2018-07-26T19:25:47.213Z,11.23
2018-07-26T19:28:16.332Z,10.93
2018-07-26T19:30:45.291Z,6.80
2018-07-26T19:33:14.308Z,7.93
2018-07-26T19:35:43.290Z,9.10
2018-07-26T19:38:12.260Z,10.87
2018-07-26T19:40:41.248Z,11.70
2018-07-26T19:43:10.265Z,8.83
2018-07-26T19:45:39.357Z,11.33
2018-07-26T19:48:08.394Z,8.17
2018-07-26T19:50:37.504Z,10.90
2018-07-26T19:53:06.636Z,13.87
2018-07-26T19:55:35.674Z,12.73
2018-07-26T19:58:04.651Z,7.93
2018-07-26T20:00:33.604Z,10.97
2018-07-26T20:03:02.633Z,9.80
2018-07-26T20:05:31.605Z,8.23
2018-07-26T20:08:00.705Z,10.07
2018-07-26T20:10:29.740Z,8.33
2018-07-26T20:12:58.736Z,7.83
2018-07-26T20:15:27.874Z,8.60
2018-07-26T20:17:56.917Z,7.33
2018-07-26T20:20:25.884Z,10.63
2018-07-26T20:22:55.029Z,12.30
2018-07-26T20:25:24.061Z,12.40
2018-07-26T20:27:53.113Z,7.80
2018-07-26T20:30:22.132Z,10.70
2018-07-26T20:32:51.231Z,9.20
2018-07-26T20:35:20.244Z,8.17
2018-07-26T20:37:49.327Z,7.43
2018-07-26T20:40:18.484Z,10.00
2018-07-26T20:42:47.432Z,14.10
2018-07-26T20:45:16.408Z,12.13
2018-07-26T20:47:45.360Z,11.37
2018-07-26T20:50:14.391Z,9.70
2018-07-26T20:52:43.351Z,9.43
2018-07-26T20:55:12.428Z,8.30
2018-07-26T20:57:41.469Z,10.33
2018-07-26T21:00:12.169Z,9.53
2018-07-26T21:02:41.520Z,8.20
2018-07-26T21:05:10.669Z,15.57
2018-07-26T21:07:39.732Z,14.10
2018-07-26T21:10:09.555Z,8.60
2018-07-26T21:12:38.536Z,13.57
2018-07-26T21:15:08.891Z,14.53
2018-07-26T21:17:37.868Z,9.00
2018-07-26T21:20:06.966Z,13.27
2018-07-26T21:22:36.101Z,12.23
2018-07-26T21:25:05.169Z,13.73
2018-07-26T21:27:34.239Z,10.47
2018-07-26T21:30:03.213Z,8.20
2018-07-26T21:32:32.312Z,10.00
2018-07-26T21:35:01.285Z,8.87
2018-07-26T21:37:30.320Z,13.30
2018-07-26T21:39:59.332Z,9.17
2018-07-26T21:42:28.421Z,10.83
2018-07-26T21:44:57.461Z,14.60
2018-07-26T21:47:26.430Z,10.07
2018-07-26T21:49:55.525Z,10.60
2018-07-26T21:52:24.533Z,9.57
2018-07-26T21:54:53.511Z,8.07
2018-07-26T21:57:22.680Z,9.67
2018-07-26T21:59:51.648Z,8.30
2018-07-26T22:02:20.687Z,11.27
2018-07-26T22:04:49.796Z,11.03
2018-07-26T22:07:18.817Z,13.83
2018-07-26T22:09:47.872Z,8.63
2018-07-26T22:12:16.862Z,14.57
2018-07-26T22:14:45.824Z,10.87
2018-07-26T22:17:14.862Z,12.43
2018-07-26T22:19:43.836Z,12.87
2018-07-26T22:22:12.874Z,13.83
2018-07-26T22:24:41.915Z,11.57
2018-07-26T22:27:10.955Z,9.10
2018-07-26T22:29:39.920Z,13.40
2018-07-26T22:32:08.952Z,12.40
2018-07-26T22:34:37.932Z,14.50
2018-07-26T22:37:07.041Z,15.33
2018-07-26T22:39:36.141Z,15.30
2018-07-26T22:42:05.120Z,10.70
2018-07-26T22:44:34.128Z,11.93
2018-07-26T22:47:03.160Z,12.00
2018-07-26T22:49:32.193Z,17.63
2018-07-26T22:52:01.161Z,14.20
2018-07-26T22:54:30.238Z,11.77
2018-07-26T22:56:59.381Z,15.03
2018-07-26T22:59:28.412Z,16.53
2018-07-26T23:01:57.432Z,12.20
2018-07-26T23:04:26.612Z,16.50
2018-07-26T23:06:55.582Z,14.40
2018-07-26T23:09:24.559Z,16.37
2018-07-26T23:11:53.568Z,17.67
2018-07-26T23:14:22.664Z,14.57
2018-07-26T23:16:51.729Z,15.23
2018-07-26T23:19:20.718Z,13.07
2018-07-26T23:21:49.808Z,18.67
2018-07-26T23:24:18.845Z,15.37
2018-07-26T23:26:47.811Z,19.70
2018-07-26T23:29:16.780Z,14.13
2018-07-26T23:31:45.776Z,25.40
2018-07-26T23:34:14.756Z,18.03
2018-07-26T23:36:43.837Z,22.50
2018-07-26T23:39:13.659Z,15.03
2018-07-26T23:41:42.680Z,18.10
2018-07-26T23:44:11.660Z,17.70
2018-07-26T23:46:40.607Z,18.40
2018-07-26T23:49:09.581Z,18.50
2018-07-26T23:51:38.600Z,19.27
2018-07-26T23:54:07.623Z,19.23
2018-07-26T23:56:36.589Z,14.40
2018-07-26T23:59:05.677Z,19.00
